Not for real navigation | The accuracy of this data is not assured | See disclaimer for more information
ICAO NAME COUNTRY WIND Kt GUST Kt VIS TEMP/DEW BARO
CYLT Alert Airport Canada 18 0 1200 -4/-5 29.75
CYLT 261718Z 02018KT 0.75SM BLSN OVC030 M04/M05 A2975 RMK SC8 VIS VRB 1/2-1 SLP078
SCRM 32 42 1500 0/0 29.38
SCRM 261700Z 01032G42KT 1500 BLSN OVC003 00/00 Q0995 NOSIG
PAKU Kuparuk, Ugnu-Kuparuk Airport AK United States 6 0 1600 0/-1 29.97
PAKU 261647Z 27006KT 1 0.5SM R24/P6000FT -SHSN BR BKN006 M00/M01 A2997
PAQT NUIQSUT AIRPORT AK United States 7 0 1600 -1/-2 29.99
PAQT 261700Z AUTO 24007KT 1 0.75SM -SN BR BKN012 OVC017 M01/M02 A2999 RMK P0000 T10061022 TS VIA AUTODIAL
BGGH Godthaab / Nuuk Greenland 26 0 2000 1/0 29.41
BGGH 261650Z 17026KT 2000 -SNRA SCT009 BKN016 OVC024 01/00 Q0996

Show more